sensor_id;sensor_type;location;lat;lon;timestamp;P1;durP1;ratioP1;P2;durP2;ratioP2
4202;SDS011;2115;51.038;7.006;2023-04-15T00:01:23;14.80;;;3.03;;
4202;SDS011;2115;51.038;7.006;2023-04-15T00:03:52;13.90;;;3.00;;
4202;SDS011;2115;51.038;7.006;2023-04-15T00:06:18;4.90;;;2.53;;
4202;SDS011;2115;51.038;7.006;2023-04-15T00:08:45;6.80;;;2.77;;
4202;SDS011;2115;51.038;7.006;2023-04-15T00:11:10;5.60;;;2.73;;
4202;SDS011;2115;51.038;7.006;2023-04-15T00:13:36;9.77;;;2.53;;
4202;SDS011;2115;51.038;7.006;2023-04-15T00:16:02;7.70;;;2.67;;
4202;SDS011;2115;51.038;7.006;2023-04-15T00:18:28;7.20;;;2.57;;
4202;SDS011;2115;51.038;7.006;2023-04-15T00:20:53;9.70;;;2.60;;
4202;SDS011;2115;51.038;7.006;2023-04-15T00:23:19;9.67;;;2.83;;
4202;SDS011;2115;51.038;7.006;2023-04-15T00:25:45;4.30;;;2.43;;
4202;SDS011;2115;51.038;7.006;2023-04-15T00:28:10;6.00;;;3.07;;
4202;SDS011;2115;51.038;7.006;2023-04-15T00:30:36;5.20;;;2.20;;
4202;SDS011;2115;51.038;7.006;2023-04-15T00:33:02;4.70;;;3.00;;
4202;SDS011;2115;51.038;7.006;2023-04-15T00:35:28;5.30;;;2.40;;
4202;SDS011;2115;51.038;7.006;2023-04-15T00:37:53;5.03;;;2.47;;
4202;SDS011;2115;51.038;7.006;2023-04-15T00:40:20;8.53;;;2.80;;
4202;SDS011;2115;51.038;7.006;2023-04-15T00:42:45;6.10;;;2.77;;
4202;SDS011;2115;51.038;7.006;2023-04-15T00:45:11;8.27;;;2.67;;
4202;SDS011;2115;51.038;7.006;2023-04-15T00:47:37;5.17;;;2.73;;
4202;SDS011;2115;51.038;7.006;2023-04-15T00:50:03;4.70;;;2.50;;
4202;SDS011;2115;51.038;7.006;2023-04-15T00:52:29;6.03;;;2.60;;
4202;SDS011;2115;51.038;7.006;2023-04-15T00:54:55;9.73;;;3.43;;
4202;SDS011;2115;51.038;7.006;2023-04-15T00:57:20;3.40;;;2.27;;
4202;SDS011;2115;51.038;7.006;2023-04-15T00:59:47;7.17;;;3.17;;
4202;SDS011;2115;51.038;7.006;2023-04-15T01:02:12;7.63;;;2.90;;
4202;SDS011;2115;51.038;7.006;2023-04-15T01:04:39;5.00;;;2.40;;
4202;SDS011;2115;51.038;7.006;2023-04-15T01:07:04;8.77;;;2.60;;
4202;SDS011;2115;51.038;7.006;2023-04-15T01:09:31;5.40;;;2.77;;
4202;SDS011;2115;51.038;7.006;2023-04-15T01:11:57;6.20;;;3.07;;
4202;SDS011;2115;51.038;7.006;2023-04-15T01:14:23;4.33;;;3.10;;
4202;SDS011;2115;51.038;7.006;2023-04-15T01:16:49;4.87;;;3.23;;
4202;SDS011;2115;51.038;7.006;2023-04-15T01:19:15;5.70;;;2.80;;
4202;SDS011;2115;51.038;7.006;2023-04-15T01:21:42;5.03;;;2.90;;
4202;SDS011;2115;51.038;7.006;2023-04-15T01:24:08;5.83;;;3.00;;
4202;SDS011;2115;51.038;7.006;2023-04-15T01:26:37;8.47;;;2.90;;
4202;SDS011;2115;51.038;7.006;2023-04-15T01:29:03;5.70;;;2.67;;
4202;SDS011;2115;51.038;7.006;2023-04-15T01:31:28;10.20;;;3.00;;
4202;SDS011;2115;51.038;7.006;2023-04-15T01:33:54;8.13;;;2.90;;
4202;SDS011;2115;51.038;7.006;2023-04-15T01:36:20;7.90;;;3.27;;
4202;SDS011;2115;51.038;7.006;2023-04-15T01:38:45;9.30;;;2.60;;
4202;SDS011;2115;51.038;7.006;2023-04-15T01:41:12;6.03;;;3.17;;
4202;SDS011;2115;51.038;7.006;2023-04-15T01:43:38;5.13;;;3.00;;
4202;SDS011;2115;51.038;7.006;2023-04-15T01:46:03;8.13;;;3.07;;
4202;SDS011;2115;51.038;7.006;2023-04-15T01:48:30;3.77;;;2.90;;
4202;SDS011;2115;51.038;7.006;2023-04-15T01:50:57;11.10;;;3.53;;
4202;SDS011;2115;51.038;7.006;2023-04-15T01:53:23;9.60;;;3.33;;
4202;SDS011;2115;51.038;7.006;2023-04-15T01:55:49;3.70;;;2.93;;
4202;SDS011;2115;51.038;7.006;2023-04-15T01:58:16;9.93;;;3.33;;
4202;SDS011;2115;51.038;7.006;2023-04-15T02:00:41;5.90;;;3.83;;
4202;SDS011;2115;51.038;7.006;2023-04-15T02:03:07;8.27;;;4.03;;
4202;SDS011;2115;51.038;7.006;2023-04-15T02:05:32;9.20;;;3.80;;
4202;SDS011;2115;51.038;7.006;2023-04-15T02:07:57;5.10;;;3.40;;
4202;SDS011;2115;51.038;7.006;2023-04-15T02:10:23;7.30;;;3.53;;
4202;SDS011;2115;51.038;7.006;2023-04-15T02:12:49;5.10;;;3.10;;
4202;SDS011;2115;51.038;7.006;2023-04-15T02:15:14;5.90;;;3.43;;
4202;SDS011;2115;51.038;7.006;2023-04-15T02:17:39;3.60;;;3.20;;
4202;SDS011;2115;51.038;7.006;2023-04-15T02:20:05;18.80;;;4.93;;
4202;SDS011;2115;51.038;7.006;2023-04-15T02:22:32;8.03;;;3.90;;
4202;SDS011;2115;51.038;7.006;2023-04-15T02:24:58;5.07;;;3.70;;
4202;SDS011;2115;51.038;7.006;2023-04-15T02:27:24;7.33;;;4.00;;
4202;SDS011;2115;51.038;7.006;2023-04-15T02:29:50;7.97;;;3.80;;
4202;SDS011;2115;51.038;7.006;2023-04-15T02:32:15;4.97;;;3.73;;
4202;SDS011;2115;51.038;7.006;2023-04-15T02:34:41;7.60;;;3.17;;
4202;SDS011;2115;51.038;7.006;2023-04-15T02:37:10;13.63;;;3.80;;
4202;SDS011;2115;51.038;7.006;2023-04-15T02:39:36;15.67;;;3.20;;
4202;SDS011;2115;51.038;7.006;2023-04-15T02:42:02;5.40;;;3.40;;
4202;SDS011;2115;51.038;7.006;2023-04-15T02:44:29;5.27;;;3.00;;
4202;SDS011;2115;51.038;7.006;2023-04-15T02:46:55;7.53;;;3.50;;
4202;SDS011;2115;51.038;7.006;2023-04-15T02:49:20;6.63;;;3.30;;
4202;SDS011;2115;51.038;7.006;2023-04-15T02:51:46;6.90;;;3.73;;
4202;SDS011;2115;51.038;7.006;2023-04-15T02:54:14;10.37;;;3.97;;
4202;SDS011;2115;51.038;7.006;2023-04-15T02:56:40;9.30;;;4.07;;
4202;SDS011;2115;51.038;7.006;2023-04-15T02:59:06;8.67;;;2.93;;
4202;SDS011;2115;51.038;7.006;2023-04-15T03:01:31;11.93;;;4.17;;
4202;SDS011;2115;51.038;7.006;2023-04-15T03:03:57;6.80;;;3.50;;
4202;SDS011;2115;51.038;7.006;2023-04-15T03:06:22;9.13;;;3.47;;
4202;SDS011;2115;51.038;7.006;2023-04-15T03:08:48;10.57;;;3.60;;
4202;SDS011;2115;51.038;7.006;2023-04-15T03:11:14;5.57;;;3.00;;
4202;SDS011;2115;51.038;7.006;2023-04-15T03:13:41;12.10;;;3.60;;
4202;SDS011;2115;51.038;7.006;2023-04-15T03:16:07;11.10;;;4.00;;
4202;SDS011;2115;51.038;7.006;2023-04-15T03:18:33;5.17;;;3.47;;
4202;SDS011;2115;51.038;7.006;2023-04-15T03:20:58;13.83;;;3.60;;
4202;SDS011;2115;51.038;7.006;2023-04-15T03:23:24;10.40;;;3.53;;
4202;SDS011;2115;51.038;7.006;2023-04-15T03:25:49;7.07;;;3.57;;
4202;SDS011;2115;51.038;7.006;2023-04-15T03:28:14;5.80;;;3.60;;
4202;SDS011;2115;51.038;7.006;2023-04-15T03:30:40;7.10;;;3.10;;
4202;SDS011;2115;51.038;7.006;2023-04-15T03:33:06;7.17;;;3.00;;
4202;SDS011;2115;51.038;7.006;2023-04-15T03:35:32;10.80;;;3.47;;
4202;SDS011;2115;51.038;7.006;2023-04-15T03:37:58;6.50;;;3.60;;
4202;SDS011;2115;51.038;7.006;2023-04-15T03:40:24;6.20;;;3.17;;
4202;SDS011;2115;51.038;7.006;2023-04-15T03:42:49;5.53;;;3.17;;
4202;SDS011;2115;51.038;7.006;2023-04-15T03:45:14;7.33;;;3.10;;
4202;SDS011;2115;51.038;7.006;2023-04-15T03:47:40;3.60;;;3.10;;
4202;SDS011;2115;51.038;7.006;2023-04-15T03:50:06;9.07;;;4.90;;
4202;SDS011;2115;51.038;7.006;2023-04-15T03:52:32;11.33;;;3.37;;
4202;SDS011;2115;51.038;7.006;2023-04-15T03:54:57;13.03;;;3.60;;
4202;SDS011;2115;51.038;7.006;2023-04-15T03:57:23;7.30;;;4.13;;
4202;SDS011;2115;51.038;7.006;2023-04-15T03:59:48;5.63;;;4.03;;
4202;SDS011;2115;51.038;7.006;2023-04-15T04:02:14;4.63;;;2.93;;
4202;SDS011;2115;51.038;7.006;2023-04-15T04:04:39;4.50;;;3.30;;
4202;SDS011;2115;51.038;7.006;2023-04-15T04:07:05;5.83;;;3.50;;
4202;SDS011;2115;51.038;7.006;2023-04-15T04:09:30;9.57;;;3.40;;
4202;SDS011;2115;51.038;7.006;2023-04-15T04:11:56;6.53;;;3.97;;
4202;SDS011;2115;51.038;7.006;2023-04-15T04:14:22;6.43;;;3.60;;
4202;SDS011;2115;51.038;7.006;2023-04-15T04:16:53;7.30;;;3.80;;
4202;SDS011;2115;51.038;7.006;2023-04-15T04:19:18;7.07;;;3.50;;
4202;SDS011;2115;51.038;7.006;2023-04-15T04:21:44;6.43;;;4.10;;
4202;SDS011;2115;51.038;7.006;2023-04-15T04:24:09;13.93;;;5.00;;
4202;SDS011;2115;51.038;7.006;2023-04-15T04:26:35;10.50;;;3.50;;
4202;SDS011;2115;51.038;7.006;2023-04-15T04:29:01;15.10;;;4.13;;
4202;SDS011;2115;51.038;7.006;2023-04-15T04:31:26;4.10;;;3.50;;
4202;SDS011;2115;51.038;7.006;2023-04-15T04:33:52;7.97;;;3.87;;
4202;SDS011;2115;51.038;7.006;2023-04-15T04:36:17;9.17;;;3.60;;
4202;SDS011;2115;51.038;7.006;2023-04-15T04:38:42;7.80;;;4.00;;
4202;SDS011;2115;51.038;7.006;2023-04-15T04:41:08;9.10;;;3.27;;
4202;SDS011;2115;51.038;7.006;2023-04-15T04:43:33;10.10;;;4.23;;
4202;SDS011;2115;51.038;7.006;2023-04-15T04:45:59;6.10;;;3.77;;
4202;SDS011;2115;51.038;7.006;2023-04-15T04:48:24;5.87;;;4.00;;
4202;SDS011;2115;51.038;7.006;2023-04-15T04:50:50;5.27;;;3.60;;
4202;SDS011;2115;51.038;7.006;2023-04-15T04:53:16;7.33;;;3.33;;
4202;SDS011;2115;51.038;7.006;2023-04-15T04:55:42;10.03;;;3.60;;
4202;SDS011;2115;51.038;7.006;2023-04-15T04:58:07;13.43;;;4.53;;
4202;SDS011;2115;51.038;7.006;2023-04-15T05:00:32;14.07;;;4.27;;
4202;SDS011;2115;51.038;7.006;2023-04-15T05:02:58;8.20;;;3.90;;
4202;SDS011;2115;51.038;7.006;2023-04-15T05:05:23;5.80;;;3.50;;
4202;SDS011;2115;51.038;7.006;2023-04-15T05:07:49;8.80;;;3.37;;
4202;SDS011;2115;51.038;7.006;2023-04-15T05:10:15;5.17;;;3.37;;
4202;SDS011;2115;51.038;7.006;2023-04-15T05:12:42;10.03;;;4.20;;
4202;SDS011;2115;51.038;7.006;2023-04-15T05:15:07;5.60;;;3.60;;
4202;SDS011;2115;51.038;7.006;2023-04-15T05:17:33;7.70;;;4.10;;
4202;SDS011;2115;51.038;7.006;2023-04-15T05:19:59;8.77;;;3.60;;
4202;SDS011;2115;51.038;7.006;2023-04-15T05:22:25;5.77;;;3.90;;
4202;SDS011;2115;51.038;7.006;2023-04-15T05:24:51;18.10;;;4.70;;
4202;SDS011;2115;51.038;7.006;2023-04-15T05:27:16;4.50;;;3.50;;
4202;SDS011;2115;51.038;7.006;2023-04-15T05:29:43;7.10;;;4.20;;
4202;SDS011;2115;51.038;7.006;2023-04-15T05:32:08;11.40;;;5.20;;
4202;SDS011;2115;51.038;7.006;2023-04-15T05:34:34;9.80;;;4.70;;
4202;SDS011;2115;51.038;7.006;2023-04-15T05:36:59;6.63;;;4.50;;
4202;SDS011;2115;51.038;7.006;2023-04-15T05:39:25;11.13;;;5.70;;
4202;SDS011;2115;51.038;7.006;2023-04-15T05:41:50;7.77;;;5.00;;
4202;SDS011;2115;51.038;7.006;2023-04-15T05:44:16;7.93;;;4.27;;
4202;SDS011;2115;51.038;7.006;2023-04-15T05:46:41;21.00;;;5.03;;
4202;SDS011;2115;51.038;7.006;2023-04-15T05:49:07;11.23;;;5.60;;
4202;SDS011;2115;51.038;7.006;2023-04-15T05:51:32;6.83;;;5.00;;
4202;SDS011;2115;51.038;7.006;2023-04-15T05:53:58;11.53;;;5.87;;
4202;SDS011;2115;51.038;7.006;2023-04-15T05:56:23;19.27;;;5.00;;
4202;SDS011;2115;51.038;7.006;2023-04-15T05:58:51;13.87;;;5.90;;
4202;SDS011;2115;51.038;7.006;2023-04-15T06:01:16;12.77;;;6.30;;
4202;SDS011;2115;51.038;7.006;2023-04-15T06:03:41;11.90;;;5.00;;
4202;SDS011;2115;51.038;7.006;2023-04-15T06:06:07;10.17;;;4.67;;
4202;SDS011;2115;51.038;7.006;2023-04-15T06:08:33;9.23;;;5.67;;
4202;SDS011;2115;51.038;7.006;2023-04-15T06:10:58;12.07;;;5.60;;
4202;SDS011;2115;51.038;7.006;2023-04-15T06:13:24;5.47;;;4.13;;
4202;SDS011;2115;51.038;7.006;2023-04-15T06:15:49;6.70;;;4.43;;
4202;SDS011;2115;51.038;7.006;2023-04-15T06:18:15;11.43;;;4.70;;
4202;SDS011;2115;51.038;7.006;2023-04-15T06:20:40;13.93;;;6.20;;
4202;SDS011;2115;51.038;7.006;2023-04-15T06:23:06;16.83;;;4.83;;
4202;SDS011;2115;51.038;7.006;2023-04-15T06:25:31;9.30;;;5.17;;
4202;SDS011;2115;51.038;7.006;2023-04-15T06:27:57;17.90;;;5.70;;
4202;SDS011;2115;51.038;7.006;2023-04-15T06:30:22;13.23;;;5.73;;
4202;SDS011;2115;51.038;7.006;2023-04-15T06:32:51;12.40;;;5.87;;
4202;SDS011;2115;51.038;7.006;2023-04-15T06:35:17;10.40;;;4.83;;
4202;SDS011;2115;51.038;7.006;2023-04-15T06:37:43;12.80;;;5.53;;
4202;SDS011;2115;51.038;7.006;2023-04-15T06:40:11;9.90;;;5.60;;
4202;SDS011;2115;51.038;7.006;2023-04-15T06:42:37;15.77;;;5.47;;
4202;SDS011;2115;51.038;7.006;2023-04-15T06:45:06;10.83;;;5.80;;
4202;SDS011;2115;51.038;7.006;2023-04-15T06:47:32;11.23;;;5.70;;
4202;SDS011;2115;51.038;7.006;2023-04-15T06:50:00;9.97;;;4.97;;
4202;SDS011;2115;51.038;7.006;2023-04-15T06:52:25;12.37;;;5.37;;
4202;SDS011;2115;51.038;7.006;2023-04-15T06:54:51;9.17;;;5.33;;
4202;SDS011;2115;51.038;7.006;2023-04-15T06:57:16;10.17;;;5.53;;
4202;SDS011;2115;51.038;7.006;2023-04-15T06:59:42;11.40;;;6.53;;
4202;SDS011;2115;51.038;7.006;2023-04-15T07:02:07;16.80;;;6.30;;
4202;SDS011;2115;51.038;7.006;2023-04-15T07:04:36;10.20;;;5.13;;
4202;SDS011;2115;51.038;7.006;2023-04-15T07:07:01;7.80;;;5.33;;
4202;SDS011;2115;51.038;7.006;2023-04-15T07:09:27;8.47;;;5.50;;
4202;SDS011;2115;51.038;7.006;2023-04-15T07:11:55;10.27;;;5.60;;
4202;SDS011;2115;51.038;7.006;2023-04-15T07:14:21;10.80;;;5.23;;
4202;SDS011;2115;51.038;7.006;2023-04-15T07:16:46;10.63;;;5.63;;
4202;SDS011;2115;51.038;7.006;2023-04-15T07:19:12;7.80;;;4.80;;
4202;SDS011;2115;51.038;7.006;2023-04-15T07:21:37;8.87;;;3.73;;
4202;SDS011;2115;51.038;7.006;2023-04-15T07:24:06;6.43;;;4.50;;
4202;SDS011;2115;51.038;7.006;2023-04-15T07:26:31;9.70;;;4.20;;
4202;SDS011;2115;51.038;7.006;2023-04-15T07:28:59;4.83;;;3.73;;
4202;SDS011;2115;51.038;7.006;2023-04-15T07:31:25;6.13;;;3.73;;
4202;SDS011;2115;51.038;7.006;2023-04-15T07:33:51;4.10;;;3.10;;
4202;SDS011;2115;51.038;7.006;2023-04-15T07:36:25;5.60;;;3.90;;
4202;SDS011;2115;51.038;7.006;2023-04-15T07:38:51;8.00;;;3.77;;
4202;SDS011;2115;51.038;7.006;2023-04-15T07:41:16;4.77;;;3.47;;
4202;SDS011;2115;51.038;7.006;2023-04-15T07:43:44;10.63;;;3.03;;
4202;SDS011;2115;51.038;7.006;2023-04-15T07:46:09;7.20;;;2.40;;
4202;SDS011;2115;51.038;7.006;2023-04-15T07:48:35;4.83;;;3.30;;
4202;SDS011;2115;51.038;7.006;2023-04-15T07:51:00;5.00;;;2.83;;
4202;SDS011;2115;51.038;7.006;2023-04-15T07:53:27;6.87;;;2.97;;
4202;SDS011;2115;51.038;7.006;2023-04-15T07:55:52;9.37;;;2.27;;
4202;SDS011;2115;51.038;7.006;2023-04-15T07:58:18;5.60;;;3.13;;
4202;SDS011;2115;51.038;7.006;2023-04-15T08:00:43;6.47;;;2.63;;
4202;SDS011;2115;51.038;7.006;2023-04-15T08:03:09;3.50;;;2.37;;
4202;SDS011;2115;51.038;7.006;2023-04-15T08:05:34;8.87;;;2.90;;
4202;SDS011;2115;51.038;7.006;2023-04-15T08:07:59;3.53;;;2.00;;
4202;SDS011;2115;51.038;7.006;2023-04-15T08:10:25;4.57;;;2.40;;
4202;SDS011;2115;51.038;7.006;2023-04-15T08:12:51;3.53;;;2.67;;
4202;SDS011;2115;51.038;7.006;2023-04-15T08:15:18;3.27;;;2.10;;
4202;SDS011;2115;51.038;7.006;2023-04-15T08:17:44;3.30;;;2.00;;
4202;SDS011;2115;51.038;7.006;2023-04-15T08:20:10;4.40;;;2.33;;
4202;SDS011;2115;51.038;7.006;2023-04-15T08:22:37;3.33;;;2.10;;
4202;SDS011;2115;51.038;7.006;2023-04-15T08:25:03;3.23;;;2.20;;
4202;SDS011;2115;51.038;7.006;2023-04-15T08:27:29;4.03;;;2.00;;
4202;SDS011;2115;51.038;7.006;2023-04-15T08:29:54;3.47;;;2.07;;
4202;SDS011;2115;51.038;7.006;2023-04-15T08:32:20;3.13;;;2.10;;
4202;SDS011;2115;51.038;7.006;2023-04-15T08:34:46;2.63;;;1.70;;
4202;SDS011;2115;51.038;7.006;2023-04-15T08:37:12;2.37;;;1.77;;
4202;SDS011;2115;51.038;7.006;2023-04-15T08:39:37;3.00;;;1.80;;
4202;SDS011;2115;51.038;7.006;2023-04-15T08:42:03;3.83;;;1.60;;
4202;SDS011;2115;51.038;7.006;2023-04-15T08:44:34;3.77;;;2.00;;
4202;SDS011;2115;51.038;7.006;2023-04-15T08:47:03;2.83;;;1.60;;
4202;SDS011;2115;51.038;7.006;2023-04-15T08:49:32;4.10;;;1.77;;
4202;SDS011;2115;51.038;7.006;2023-04-15T08:51:59;2.53;;;1.83;;
4202;SDS011;2115;51.038;7.006;2023-04-15T08:54:26;3.93;;;1.97;;
4202;SDS011;2115;51.038;7.006;2023-04-15T08:56:52;5.70;;;2.07;;
4202;SDS011;2115;51.038;7.006;2023-04-15T08:59:18;5.27;;;2.40;;
4202;SDS011;2115;51.038;7.006;2023-04-15T09:01:45;4.10;;;2.40;;
4202;SDS011;2115;51.038;7.006;2023-04-15T09:04:11;5.53;;;2.70;;
4202;SDS011;2115;51.038;7.006;2023-04-15T09:06:38;3.17;;;1.93;;
4202;SDS011;2115;51.038;7.006;2023-04-15T09:09:03;5.10;;;3.07;;
4202;SDS011;2115;51.038;7.006;2023-04-15T09:11:29;3.87;;;2.30;;
4202;SDS011;2115;51.038;7.006;2023-04-15T09:13:55;5.63;;;2.53;;
4202;SDS011;2115;51.038;7.006;2023-04-15T09:16:20;3.10;;;2.40;;
4202;SDS011;2115;51.038;7.006;2023-04-15T09:18:46;5.40;;;2.70;;
4202;SDS011;2115;51.038;7.006;2023-04-15T09:21:12;5.37;;;2.30;;
4202;SDS011;2115;51.038;7.006;2023-04-15T09:24:00;2.87;;;2.07;;
4202;SDS011;2115;51.038;7.006;2023-04-15T09:26:34;5.00;;;2.13;;
4202;SDS011;2115;51.038;7.006;2023-04-15T09:29:04;4.30;;;2.00;;
4202;SDS011;2115;51.038;7.006;2023-04-15T09:31:33;4.00;;;2.00;;
4202;SDS011;2115;51.038;7.006;2023-04-15T09:34:02;3.43;;;1.70;;
4202;SDS011;2115;51.038;7.006;2023-04-15T09:36:27;3.00;;;1.90;;
4202;SDS011;2115;51.038;7.006;2023-04-15T09:38:57;3.67;;;2.40;;
4202;SDS011;2115;51.038;7.006;2023-04-15T09:41:24;6.50;;;1.90;;
4202;SDS011;2115;51.038;7.006;2023-04-15T09:43:50;4.87;;;2.73;;
4202;SDS011;2115;51.038;7.006;2023-04-15T09:46:16;4.30;;;2.53;;
4202;SDS011;2115;51.038;7.006;2023-04-15T09:48:41;3.40;;;2.60;;
4202;SDS011;2115;51.038;7.006;2023-04-15T09:51:06;5.90;;;3.60;;
4202;SDS011;2115;51.038;7.006;2023-04-15T09:53:33;4.10;;;2.40;;
4202;SDS011;2115;51.038;7.006;2023-04-15T09:56:00;5.27;;;2.87;;
4202;SDS011;2115;51.038;7.006;2023-04-15T09:58:30;4.40;;;3.10;;
4202;SDS011;2115;51.038;7.006;2023-04-15T10:00:57;4.53;;;2.70;;
4202;SDS011;2115;51.038;7.006;2023-04-15T10:03:24;4.70;;;3.27;;
4202;SDS011;2115;51.038;7.006;2023-04-15T10:05:52;5.87;;;3.60;;
4202;SDS011;2115;51.038;7.006;2023-04-15T10:08:22;5.40;;;4.10;;
4202;SDS011;2115;51.038;7.006;2023-04-15T10:10:48;5.70;;;3.43;;
4202;SDS011;2115;51.038;7.006;2023-04-15T10:13:16;5.80;;;4.30;;
4202;SDS011;2115;51.038;7.006;2023-04-15T10:15:43;5.60;;;3.47;;
4202;SDS011;2115;51.038;7.006;2023-04-15T10:18:15;6.43;;;3.33;;
4202;SDS011;2115;51.038;7.006;2023-04-15T10:20:42;4.70;;;3.23;;
4202;SDS011;2115;51.038;7.006;2023-04-15T10:23:08;5.80;;;3.33;;
4202;SDS011;2115;51.038;7.006;2023-04-15T10:25:35;4.20;;;2.70;;
4202;SDS011;2115;51.038;7.006;2023-04-15T10:28:00;4.47;;;3.33;;
4202;SDS011;2115;51.038;7.006;2023-04-15T10:30:26;6.83;;;3.60;;
4202;SDS011;2115;51.038;7.006;2023-04-15T10:32:52;4.93;;;3.50;;
4202;SDS011;2115;51.038;7.006;2023-04-15T10:35:18;6.83;;;4.10;;
4202;SDS011;2115;51.038;7.006;2023-04-15T10:37:45;6.00;;;3.03;;
4202;SDS011;2115;51.038;7.006;2023-04-15T10:40:32;5.50;;;2.83;;
4202;SDS011;2115;51.038;7.006;2023-04-15T10:42:58;6.23;;;2.47;;
4202;SDS011;2115;51.038;7.006;2023-04-15T10:45:24;3.67;;;2.57;;
4202;SDS011;2115;51.038;7.006;2023-04-15T10:47:56;12.03;;;3.60;;
4202;SDS011;2115;51.038;7.006;2023-04-15T10:50:26;9.63;;;3.20;;
4202;SDS011;2115;51.038;7.006;2023-04-15T10:52:52;3.97;;;3.13;;
4202;SDS011;2115;51.038;7.006;2023-04-15T10:55:19;5.80;;;2.83;;
4202;SDS011;2115;51.038;7.006;2023-04-15T10:57:45;3.97;;;2.70;;
4202;SDS011;2115;51.038;7.006;2023-04-15T11:00:15;3.00;;;2.17;;
4202;SDS011;2115;51.038;7.006;2023-04-15T11:02:42;3.83;;;2.67;;
4202;SDS011;2115;51.038;7.006;2023-04-15T11:05:48;3.67;;;2.27;;
4202;SDS011;2115;51.038;7.006;2023-04-15T11:08:17;3.70;;;2.73;;
4202;SDS011;2115;51.038;7.006;2023-04-15T11:15:43;6.40;;;3.10;;
4202;SDS011;2115;51.038;7.006;2023-04-15T11:18:13;4.67;;;3.00;;
4202;SDS011;2115;51.038;7.006;2023-04-15T11:20:42;4.47;;;2.90;;
4202;SDS011;2115;51.038;7.006;2023-04-15T11:23:09;5.70;;;2.57;;
4202;SDS011;2115;51.038;7.006;2023-04-15T11:25:35;3.90;;;2.47;;
4202;SDS011;2115;51.038;7.006;2023-04-15T11:28:03;3.47;;;2.23;;
4202;SDS011;2115;51.038;7.006;2023-04-15T11:30:30;4.10;;;2.90;;
4202;SDS011;2115;51.038;7.006;2023-04-15T11:32:58;6.30;;;3.07;;
4202;SDS011;2115;51.038;7.006;2023-04-15T11:35:24;3.07;;;2.23;;
4202;SDS011;2115;51.038;7.006;2023-04-15T11:37:50;3.40;;;2.50;;
4202;SDS011;2115;51.038;7.006;2023-04-15T11:40:16;3.13;;;2.47;;
4202;SDS011;2115;51.038;7.006;2023-04-15T11:42:42;6.87;;;2.30;;
4202;SDS011;2115;51.038;7.006;2023-04-15T11:45:12;3.07;;;2.40;;
4202;SDS011;2115;51.038;7.006;2023-04-15T11:47:39;4.40;;;3.00;;
4202;SDS011;2115;51.038;7.006;2023-04-15T11:50:12;3.83;;;2.47;;
4202;SDS011;2115;51.038;7.006;2023-04-15T11:52:54;5.20;;;3.30;;
4202;SDS011;2115;51.038;7.006;2023-04-15T11:55:20;4.30;;;3.60;;
4202;SDS011;2115;51.038;7.006;2023-04-15T11:57:47;5.37;;;4.03;;
4202;SDS011;2115;51.038;7.006;2023-04-15T12:00:14;5.10;;;3.70;;
4202;SDS011;2115;51.038;7.006;2023-04-15T12:02:41;5.97;;;4.00;;
4202;SDS011;2115;51.038;7.006;2023-04-15T12:05:07;5.20;;;3.30;;
4202;SDS011;2115;51.038;7.006;2023-04-15T12:07:56;5.60;;;4.40;;
4202;SDS011;2115;51.038;7.006;2023-04-15T12:10:23;4.47;;;4.00;;
4202;SDS011;2115;51.038;7.006;2023-04-15T12:12:50;4.33;;;3.67;;
4202;SDS011;2115;51.038;7.006;2023-04-15T12:15:16;4.97;;;4.47;;
4202;SDS011;2115;51.038;7.006;2023-04-15T12:17:42;4.80;;;4.23;;
4202;SDS011;2115;51.038;7.006;2023-04-15T12:20:07;5.20;;;3.67;;
4202;SDS011;2115;51.038;7.006;2023-04-15T12:22:36;4.67;;;4.13;;
4202;SDS011;2115;51.038;7.006;2023-04-15T12:25:02;5.80;;;3.30;;
4202;SDS011;2115;51.038;7.006;2023-04-15T12:27:27;5.90;;;3.50;;
4202;SDS011;2115;51.038;7.006;2023-04-15T12:30:02;4.27;;;3.80;;
4202;SDS011;2115;51.038;7.006;2023-04-15T12:32:29;5.63;;;4.80;;
4202;SDS011;2115;51.038;7.006;2023-04-15T12:34:54;6.10;;;4.90;;
4202;SDS011;2115;51.038;7.006;2023-04-15T12:37:20;5.77;;;5.17;;
4202;SDS011;2115;51.038;7.006;2023-04-15T12:39:46;7.07;;;5.40;;
4202;SDS011;2115;51.038;7.006;2023-04-15T12:42:16;6.17;;;5.27;;
4202;SDS011;2115;51.038;7.006;2023-04-15T12:44:41;6.90;;;4.57;;
4202;SDS011;2115;51.038;7.006;2023-04-15T12:47:07;6.37;;;5.40;;
4202;SDS011;2115;51.038;7.006;2023-04-15T12:49:33;9.30;;;6.13;;
4202;SDS011;2115;51.038;7.006;2023-04-15T12:51:59;10.00;;;6.07;;
4202;SDS011;2115;51.038;7.006;2023-04-15T12:54:26;7.60;;;5.90;;
4202;SDS011;2115;51.038;7.006;2023-04-15T12:56:52;6.83;;;5.70;;
4202;SDS011;2115;51.038;7.006;2023-04-15T12:59:18;8.17;;;6.37;;
4202;SDS011;2115;51.038;7.006;2023-04-15T13:01:44;7.90;;;6.50;;
4202;SDS011;2115;51.038;7.006;2023-04-15T13:04:11;9.27;;;6.73;;
4202;SDS011;2115;51.038;7.006;2023-04-15T13:06:36;10.63;;;5.70;;
4202;SDS011;2115;51.038;7.006;2023-04-15T13:09:02;9.03;;;6.83;;
4202;SDS011;2115;51.038;7.006;2023-04-15T13:11:28;9.97;;;6.77;;
4202;SDS011;2115;51.038;7.006;2023-04-15T13:14:05;8.70;;;6.27;;
4202;SDS011;2115;51.038;7.006;2023-04-15T13:16:31;9.20;;;6.40;;
4202;SDS011;2115;51.038;7.006;2023-04-15T13:19:00;12.23;;;6.43;;
4202;SDS011;2115;51.038;7.006;2023-04-15T13:21:26;10.70;;;6.37;;
4202;SDS011;2115;51.038;7.006;2023-04-15T13:23:52;8.20;;;6.10;;
4202;SDS011;2115;51.038;7.006;2023-04-15T13:26:18;10.83;;;5.90;;
4202;SDS011;2115;51.038;7.006;2023-04-15T13:28:43;9.03;;;5.53;;
4202;SDS011;2115;51.038;7.006;2023-04-15T13:31:09;8.20;;;5.93;;
4202;SDS011;2115;51.038;7.006;2023-04-15T13:33:35;8.90;;;6.17;;
4202;SDS011;2115;51.038;7.006;2023-04-15T13:36:00;7.93;;;6.10;;
4202;SDS011;2115;51.038;7.006;2023-04-15T13:38:26;9.53;;;6.20;;
4202;SDS011;2115;51.038;7.006;2023-04-15T13:40:51;10.60;;;5.80;;
4202;SDS011;2115;51.038;7.006;2023-04-15T13:43:16;9.47;;;6.40;;
4202;SDS011;2115;51.038;7.006;2023-04-15T13:45:42;10.73;;;6.60;;
4202;SDS011;2115;51.038;7.006;2023-04-15T13:48:08;7.17;;;4.80;;
4202;SDS011;2115;51.038;7.006;2023-04-15T13:50:33;5.20;;;3.90;;
4202;SDS011;2115;51.038;7.006;2023-04-15T13:52:59;5.73;;;4.07;;
4202;SDS011;2115;51.038;7.006;2023-04-15T13:55:24;4.80;;;3.70;;
4202;SDS011;2115;51.038;7.006;2023-04-15T13:57:50;7.43;;;5.20;;
4202;SDS011;2115;51.038;7.006;2023-04-15T14:00:15;6.77;;;5.60;;
4202;SDS011;2115;51.038;7.006;2023-04-15T14:02:41;9.97;;;7.13;;
4202;SDS011;2115;51.038;7.006;2023-04-15T14:05:06;9.83;;;7.47;;
4202;SDS011;2115;51.038;7.006;2023-04-15T14:07:32;15.20;;;5.87;;
4202;SDS011;2115;51.038;7.006;2023-04-15T14:09:58;7.07;;;5.20;;
4202;SDS011;2115;51.038;7.006;2023-04-15T14:12:24;6.90;;;5.00;;
4202;SDS011;2115;51.038;7.006;2023-04-15T14:14:49;5.53;;;4.50;;
4202;SDS011;2115;51.038;7.006;2023-04-15T14:17:14;6.63;;;4.57;;
4202;SDS011;2115;51.038;7.006;2023-04-15T14:19:40;6.47;;;4.37;;
4202;SDS011;2115;51.038;7.006;2023-04-15T14:22:05;6.83;;;3.90;;
4202;SDS011;2115;51.038;7.006;2023-04-15T14:24:30;5.47;;;3.90;;
4202;SDS011;2115;51.038;7.006;2023-04-15T14:26:57;6.80;;;4.07;;
4202;SDS011;2115;51.038;7.006;2023-04-15T14:29:22;4.73;;;3.33;;
4202;SDS011;2115;51.038;7.006;2023-04-15T14:31:48;6.53;;;3.80;;
4202;SDS011;2115;51.038;7.006;2023-04-15T14:34:14;10.03;;;3.97;;
4202;SDS011;2115;51.038;7.006;2023-04-15T14:36:40;6.43;;;3.00;;
4202;SDS011;2115;51.038;7.006;2023-04-15T14:39:05;5.50;;;3.70;;
4202;SDS011;2115;51.038;7.006;2023-04-15T14:41:32;9.33;;;3.60;;
4202;SDS011;2115;51.038;7.006;2023-04-15T14:43:57;5.33;;;2.77;;
4202;SDS011;2115;51.038;7.006;2023-04-15T14:46:22;4.77;;;3.40;;
4202;SDS011;2115;51.038;7.006;2023-04-15T14:48:48;4.33;;;3.10;;
4202;SDS011;2115;51.038;7.006;2023-04-15T14:51:13;6.30;;;3.20;;
4202;SDS011;2115;51.038;7.006;2023-04-15T14:53:40;5.10;;;3.00;;
4202;SDS011;2115;51.038;7.006;2023-04-15T14:56:05;4.20;;;3.10;;
4202;SDS011;2115;51.038;7.006;2023-04-15T14:58:31;3.90;;;2.33;;
4202;SDS011;2115;51.038;7.006;2023-04-15T15:00:57;11.47;;;3.70;;
4202;SDS011;2115;51.038;7.006;2023-04-15T15:03:22;4.77;;;2.90;;
4202;SDS011;2115;51.038;7.006;2023-04-15T15:05:48;6.70;;;3.00;;
4202;SDS011;2115;51.038;7.006;2023-04-15T15:08:13;3.80;;;2.77;;
4202;SDS011;2115;51.038;7.006;2023-04-15T15:10:39;4.60;;;3.20;;
4202;SDS011;2115;51.038;7.006;2023-04-15T15:13:05;4.97;;;2.97;;